sensor_id;sensor_type;location;lat;lon;timestamp;temperature;humidity
32296;DHT22;18781;51.550;5.418;2022-08-19T00:00:14;22.60;63.10
32296;DHT22;18781;51.550;5.418;2022-08-19T00:02:40;22.50;63.10
32296;DHT22;18781;51.550;5.418;2022-08-19T00:05:08;22.50;63.20
32296;DHT22;18781;51.550;5.418;2022-08-19T00:07:34;22.50;63.50
32296;DHT22;18781;51.550;5.418;2022-08-19T00:09:59;22.50;63.40
32296;DHT22;18781;51.550;5.418;2022-08-19T00:12:25;22.40;63.20
32296;DHT22;18781;51.550;5.418;2022-08-19T00:14:51;22.40;63.30
32296;DHT22;18781;51.550;5.418;2022-08-19T00:17:18;22.40;63.30
32296;DHT22;18781;51.550;5.418;2022-08-19T00:19:43;22.30;63.20
32296;DHT22;18781;51.550;5.418;2022-08-19T00:22:09;22.30;63.30
32296;DHT22;18781;51.550;5.418;2022-08-19T00:24:35;22.30;63.50
32296;DHT22;18781;51.550;5.418;2022-08-19T00:27:03;22.20;63.70
32296;DHT22;18781;51.550;5.418;2022-08-19T00:29:28;22.20;63.80
32296;DHT22;18781;51.550;5.418;2022-08-19T00:31:54;22.20;63.80
32296;DHT22;18781;51.550;5.418;2022-08-19T00:34:22;22.20;63.90
32296;DHT22;18781;51.550;5.418;2022-08-19T00:36:48;22.10;63.90
32296;DHT22;18781;51.550;5.418;2022-08-19T00:39:15;22.10;63.70
32296;DHT22;18781;51.550;5.418;2022-08-19T00:41:42;22.10;63.80
32296;DHT22;18781;51.550;5.418;2022-08-19T00:44:15;22.10;63.90
32296;DHT22;18781;51.550;5.418;2022-08-19T00:46:44;22.00;64.10
32296;DHT22;18781;51.550;5.418;2022-08-19T00:51:41;22.00;64.00
32296;DHT22;18781;51.550;5.418;2022-08-19T00:54:07;21.90;63.90
32296;DHT22;18781;51.550;5.418;2022-08-19T00:56:35;21.90;64.00
32296;DHT22;18781;51.550;5.418;2022-08-19T00:59:02;21.90;64.20
32296;DHT22;18781;51.550;5.418;2022-08-19T01:01:33;21.80;64.20
32296;DHT22;18781;51.550;5.418;2022-08-19T01:03:59;21.80;64.20
32296;DHT22;18781;51.550;5.418;2022-08-19T01:06:25;21.80;64.40
32296;DHT22;18781;51.550;5.418;2022-08-19T01:08:51;21.70;64.30
32296;DHT22;18781;51.550;5.418;2022-08-19T01:11:17;21.70;64.60
32296;DHT22;18781;51.550;5.418;2022-08-19T01:13:43;21.70;64.70
32296;DHT22;18781;51.550;5.418;2022-08-19T01:16:10;21.70;64.70
32296;DHT22;18781;51.550;5.418;2022-08-19T01:18:39;21.70;65.00
32296;DHT22;18781;51.550;5.418;2022-08-19T01:21:11;21.70;64.90
32296;DHT22;18781;51.550;5.418;2022-08-19T01:23:40;21.60;65.30
32296;DHT22;18781;51.550;5.418;2022-08-19T01:26:19;21.60;64.70
32296;DHT22;18781;51.550;5.418;2022-08-19T01:28:47;21.60;65.30
32296;DHT22;18781;51.550;5.418;2022-08-19T01:31:20;21.60;64.90
32296;DHT22;18781;51.550;5.418;2022-08-19T01:33:47;21.60;65.30
32296;DHT22;18781;51.550;5.418;2022-08-19T01:36:22;21.60;65.10
32296;DHT22;18781;51.550;5.418;2022-08-19T01:38:48;21.50;65.10
32296;DHT22;18781;51.550;5.418;2022-08-19T01:41:15;21.50;65.10
32296;DHT22;18781;51.550;5.418;2022-08-19T01:43:42;21.50;65.10
32296;DHT22;18781;51.550;5.418;2022-08-19T01:46:07;21.50;65.10
32296;DHT22;18781;51.550;5.418;2022-08-19T01:48:39;21.50;65.20
32296;DHT22;18781;51.550;5.418;2022-08-19T01:51:07;21.40;65.30
32296;DHT22;18781;51.550;5.418;2022-08-19T01:53:33;21.40;65.30
32296;DHT22;18781;51.550;5.418;2022-08-19T01:55:59;21.40;65.20
32296;DHT22;18781;51.550;5.418;2022-08-19T01:58:30;21.40;65.40
32296;DHT22;18781;51.550;5.418;2022-08-19T02:00:57;21.40;65.60
32296;DHT22;18781;51.550;5.418;2022-08-19T02:03:23;21.40;65.50
32296;DHT22;18781;51.550;5.418;2022-08-19T02:05:55;21.40;65.60
32296;DHT22;18781;51.550;5.418;2022-08-19T02:08:21;21.30;66.20
32296;DHT22;18781;51.550;5.418;2022-08-19T02:10:46;21.30;65.80
32296;DHT22;18781;51.550;5.418;2022-08-19T02:13:13;21.30;65.80
32296;DHT22;18781;51.550;5.418;2022-08-19T02:15:39;21.30;65.90
32296;DHT22;18781;51.550;5.418;2022-08-19T02:18:05;21.30;66.00
32296;DHT22;18781;51.550;5.418;2022-08-19T02:20:30;21.30;66.10
32296;DHT22;18781;51.550;5.418;2022-08-19T02:22:56;21.20;66.20
32296;DHT22;18781;51.550;5.418;2022-08-19T02:25:22;21.20;66.20
32296;DHT22;18781;51.550;5.418;2022-08-19T02:27:48;21.20;66.50
32296;DHT22;18781;51.550;5.418;2022-08-19T02:30:18;21.20;66.60
32296;DHT22;18781;51.550;5.418;2022-08-19T02:32:44;21.20;66.90
32296;DHT22;18781;51.550;5.418;2022-08-19T02:35:10;21.20;66.60
32296;DHT22;18781;51.550;5.418;2022-08-19T02:37:36;21.20;66.60
32296;DHT22;18781;51.550;5.418;2022-08-19T02:40:20;21.20;66.70
32296;DHT22;18781;51.550;5.418;2022-08-19T02:42:46;21.20;66.60
32296;DHT22;18781;51.550;5.418;2022-08-19T02:45:13;21.20;67.40
32296;DHT22;18781;51.550;5.418;2022-08-19T02:47:39;21.10;66.90
32296;DHT22;18781;51.550;5.418;2022-08-19T02:50:05;21.10;67.00
32296;DHT22;18781;51.550;5.418;2022-08-19T02:52:32;21.10;67.10
32296;DHT22;18781;51.550;5.418;2022-08-19T02:54:58;21.10;67.10
32296;DHT22;18781;51.550;5.418;2022-08-19T02:57:24;21.10;67.30
32296;DHT22;18781;51.550;5.418;2022-08-19T02:59:50;21.10;67.30
32296;DHT22;18781;51.550;5.418;2022-08-19T03:02:16;21.10;67.20
32296;DHT22;18781;51.550;5.418;2022-08-19T03:04:41;21.10;67.30
32296;DHT22;18781;51.550;5.418;2022-08-19T03:07:08;21.10;67.30
32296;DHT22;18781;51.550;5.418;2022-08-19T03:09:36;21.10;67.60
32296;DHT22;18781;51.550;5.418;2022-08-19T03:12:03;21.10;67.60
32296;DHT22;18781;51.550;5.418;2022-08-19T03:14:31;21.00;67.30
32296;DHT22;18781;51.550;5.418;2022-08-19T03:16:57;21.00;67.50
32296;DHT22;18781;51.550;5.418;2022-08-19T03:19:23;21.10;67.60
32296;DHT22;18781;51.550;5.418;2022-08-19T03:21:49;21.10;67.60
32296;DHT22;18781;51.550;5.418;2022-08-19T03:24:16;21.00;67.60
32296;DHT22;18781;51.550;5.418;2022-08-19T03:26:51;21.00;67.50
32296;DHT22;18781;51.550;5.418;2022-08-19T03:29:20;21.00;67.90
32296;DHT22;18781;51.550;5.418;2022-08-19T03:31:45;21.00;67.70
32296;DHT22;18781;51.550;5.418;2022-08-19T03:34:26;21.00;67.60
32296;DHT22;18781;51.550;5.418;2022-08-19T03:36:58;21.00;68.00
32296;DHT22;18781;51.550;5.418;2022-08-19T03:39:26;21.00;67.90
32296;DHT22;18781;51.550;5.418;2022-08-19T03:41:53;21.00;67.70
32296;DHT22;18781;51.550;5.418;2022-08-19T03:44:23;21.00;67.80
32296;DHT22;18781;51.550;5.418;2022-08-19T03:46:52;21.00;67.90
32296;DHT22;18781;51.550;5.418;2022-08-19T03:49:19;21.00;68.00
32296;DHT22;18781;51.550;5.418;2022-08-19T03:51:46;20.90;67.70
32296;DHT22;18781;51.550;5.418;2022-08-19T03:54:14;20.90;67.80
32296;DHT22;18781;51.550;5.418;2022-08-19T03:56:42;20.90;67.70
32296;DHT22;18781;51.550;5.418;2022-08-19T03:59:10;20.90;67.80
32296;DHT22;18781;51.550;5.418;2022-08-19T04:01:36;20.90;67.60
32296;DHT22;18781;51.550;5.418;2022-08-19T04:04:02;20.90;67.80
32296;DHT22;18781;51.550;5.418;2022-08-19T04:06:34;20.90;67.80
32296;DHT22;18781;51.550;5.418;2022-08-19T04:09:03;20.90;68.00
32296;DHT22;18781;51.550;5.418;2022-08-19T04:11:35;20.90;68.10
32296;DHT22;18781;51.550;5.418;2022-08-19T04:14:01;20.80;68.10
32296;DHT22;18781;51.550;5.418;2022-08-19T04:16:28;20.80;68.10
32296;DHT22;18781;51.550;5.418;2022-08-19T04:18:55;20.80;68.20
32296;DHT22;18781;51.550;5.418;2022-08-19T04:21:24;20.80;68.10
32296;DHT22;18781;51.550;5.418;2022-08-19T04:23:51;20.80;68.20
32296;DHT22;18781;51.550;5.418;2022-08-19T04:26:21;20.80;68.00
32296;DHT22;18781;51.550;5.418;2022-08-19T04:28:47;20.80;68.10
32296;DHT22;18781;51.550;5.418;2022-08-19T04:31:18;20.70;68.00
32296;DHT22;18781;51.550;5.418;2022-08-19T04:33:44;20.70;68.30
32296;DHT22;18781;51.550;5.418;2022-08-19T04:36:19;20.70;68.10
32296;DHT22;18781;51.550;5.418;2022-08-19T04:38:46;20.70;68.10
32296;DHT22;18781;51.550;5.418;2022-08-19T04:41:12;20.70;67.90
32296;DHT22;18781;51.550;5.418;2022-08-19T04:43:56;20.60;67.70
32296;DHT22;18781;51.550;5.418;2022-08-19T04:46:22;20.60;67.70
32296;DHT22;18781;51.550;5.418;2022-08-19T04:48:48;20.60;67.70
32296;DHT22;18781;51.550;5.418;2022-08-19T04:51:13;20.50;67.70
32296;DHT22;18781;51.550;5.418;2022-08-19T04:53:41;20.50;67.80
32296;DHT22;18781;51.550;5.418;2022-08-19T04:56:08;20.50;67.90
32296;DHT22;18781;51.550;5.418;2022-08-19T04:58:35;20.50;68.10
32296;DHT22;18781;51.550;5.418;2022-08-19T05:01:01;20.40;68.00
32296;DHT22;18781;51.550;5.418;2022-08-19T05:03:27;20.40;68.20
32296;DHT22;18781;51.550;5.418;2022-08-19T05:05:56;20.40;68.30
32296;DHT22;18781;51.550;5.418;2022-08-19T05:08:22;20.40;68.40
32296;DHT22;18781;51.550;5.418;2022-08-19T05:10:50;20.40;68.50
32296;DHT22;18781;51.550;5.418;2022-08-19T05:13:18;20.40;68.50
32296;DHT22;18781;51.550;5.418;2022-08-19T05:15:55;20.40;68.50
32296;DHT22;18781;51.550;5.418;2022-08-19T05:18:21;20.40;68.50
32296;DHT22;18781;51.550;5.418;2022-08-19T05:21:14;20.40;68.60
32296;DHT22;18781;51.550;5.418;2022-08-19T05:23:58;20.40;69.60
32296;DHT22;18781;51.550;5.418;2022-08-19T05:26:25;20.40;68.80
32296;DHT22;18781;51.550;5.418;2022-08-19T05:28:52;20.40;68.90
32296;DHT22;18781;51.550;5.418;2022-08-19T05:31:18;20.40;69.10
32296;DHT22;18781;51.550;5.418;2022-08-19T05:33:44;20.40;69.10
32296;DHT22;18781;51.550;5.418;2022-08-19T05:36:09;20.40;69.20
32296;DHT22;18781;51.550;5.418;2022-08-19T05:38:35;20.40;69.20
32296;DHT22;18781;51.550;5.418;2022-08-19T05:41:08;20.40;69.40
32296;DHT22;18781;51.550;5.418;2022-08-19T05:43:35;20.40;69.70
32296;DHT22;18781;51.550;5.418;2022-08-19T05:46:01;20.40;69.60
32296;DHT22;18781;51.550;5.418;2022-08-19T05:48:26;20.50;69.80
32296;DHT22;18781;51.550;5.418;2022-08-19T05:50:52;20.50;69.80
32296;DHT22;18781;51.550;5.418;2022-08-19T05:53:18;20.50;70.00
32296;DHT22;18781;51.550;5.418;2022-08-19T05:55:44;20.50;70.00
32296;DHT22;18781;51.550;5.418;2022-08-19T05:58:10;20.50;70.10
32296;DHT22;18781;51.550;5.418;2022-08-19T06:00:37;20.60;70.20
32296;DHT22;18781;51.550;5.418;2022-08-19T06:03:02;20.60;70.10
32296;DHT22;18781;51.550;5.418;2022-08-19T06:05:32;20.60;70.10
32296;DHT22;18781;51.550;5.418;2022-08-19T06:07:58;20.60;70.50
32296;DHT22;18781;51.550;5.418;2022-08-19T06:10:24;20.60;70.30
32296;DHT22;18781;51.550;5.418;2022-08-19T06:12:51;20.70;70.40
32296;DHT22;18781;51.550;5.418;2022-08-19T06:15:17;20.70;70.40
32296;DHT22;18781;51.550;5.418;2022-08-19T06:17:42;20.70;70.40
32296;DHT22;18781;51.550;5.418;2022-08-19T06:20:13;20.70;70.40
32296;DHT22;18781;51.550;5.418;2022-08-19T06:22:45;20.80;70.60
32296;DHT22;18781;51.550;5.418;2022-08-19T06:25:12;20.80;70.70
32296;DHT22;18781;51.550;5.418;2022-08-19T06:27:39;20.90;70.50
32296;DHT22;18781;51.550;5.418;2022-08-19T06:30:06;20.90;70.50
32296;DHT22;18781;51.550;5.418;2022-08-19T06:32:31;21.00;70.50
32296;DHT22;18781;51.550;5.418;2022-08-19T06:34:57;21.00;70.50
32296;DHT22;18781;51.550;5.418;2022-08-19T06:37:23;21.00;70.40
32296;DHT22;18781;51.550;5.418;2022-08-19T06:39:49;21.10;70.60
32296;DHT22;18781;51.550;5.418;2022-08-19T06:42:15;21.10;70.50
32296;DHT22;18781;51.550;5.418;2022-08-19T06:44:45;21.10;70.50
32296;DHT22;18781;51.550;5.418;2022-08-19T06:47:17;21.20;70.60
32296;DHT22;18781;51.550;5.418;2022-08-19T06:49:43;21.20;70.80
32296;DHT22;18781;51.550;5.418;2022-08-19T06:52:09;21.30;70.50
32296;DHT22;18781;51.550;5.418;2022-08-19T06:54:38;21.30;70.50
32296;DHT22;18781;51.550;5.418;2022-08-19T06:57:05;21.40;70.40
32296;DHT22;18781;51.550;5.418;2022-08-19T06:59:32;21.40;70.50
32296;DHT22;18781;51.550;5.418;2022-08-19T07:02:00;21.50;70.70
32296;DHT22;18781;51.550;5.418;2022-08-19T07:04:28;21.50;70.70
32296;DHT22;18781;51.550;5.418;2022-08-19T07:07:03;21.60;70.90
32296;DHT22;18781;51.550;5.418;2022-08-19T07:09:31;21.70;71.00
32296;DHT22;18781;51.550;5.418;2022-08-19T07:11:57;21.70;70.50
32296;DHT22;18781;51.550;5.418;2022-08-19T07:14:25;21.80;70.50
32296;DHT22;18781;51.550;5.418;2022-08-19T07:16:53;21.80;70.60
32296;DHT22;18781;51.550;5.418;2022-08-19T07:19:21;21.90;70.60
32296;DHT22;18781;51.550;5.418;2022-08-19T07:21:48;21.90;70.30
32296;DHT22;18781;51.550;5.418;2022-08-19T07:24:15;22.00;70.50
32296;DHT22;18781;51.550;5.418;2022-08-19T07:26:42;22.00;70.30
32296;DHT22;18781;51.550;5.418;2022-08-19T07:29:08;22.10;70.30
32296;DHT22;18781;51.550;5.418;2022-08-19T07:31:33;22.10;70.30
32296;DHT22;18781;51.550;5.418;2022-08-19T07:34:07;22.20;70.40
32296;DHT22;18781;51.550;5.418;2022-08-19T07:36:34;22.20;70.40
32296;DHT22;18781;51.550;5.418;2022-08-19T07:39:07;22.30;70.30
32296;DHT22;18781;51.550;5.418;2022-08-19T07:41:35;22.30;70.30
32296;DHT22;18781;51.550;5.418;2022-08-19T07:44:02;22.30;70.20
32296;DHT22;18781;51.550;5.418;2022-08-19T07:46:34;22.40;70.00
32296;DHT22;18781;51.550;5.418;2022-08-19T07:49:01;22.40;70.00
32296;DHT22;18781;51.550;5.418;2022-08-19T07:51:27;22.50;70.00
32296;DHT22;18781;51.550;5.418;2022-08-19T07:53:53;22.50;69.90
32296;DHT22;18781;51.550;5.418;2022-08-19T07:56:20;22.60;69.90
32296;DHT22;18781;51.550;5.418;2022-08-19T07:58:48;22.60;69.70
32296;DHT22;18781;51.550;5.418;2022-08-19T08:01:21;22.60;69.70
32296;DHT22;18781;51.550;5.418;2022-08-19T08:03:48;22.60;69.50
32296;DHT22;18781;51.550;5.418;2022-08-19T08:06:33;22.70;69.50
32296;DHT22;18781;51.550;5.418;2022-08-19T08:09:21;22.70;69.50
32296;DHT22;18781;51.550;5.418;2022-08-19T08:14:19;22.80;69.50
32296;DHT22;18781;51.550;5.418;2022-08-19T08:16:47;22.80;69.40
32296;DHT22;18781;51.550;5.418;2022-08-19T08:19:18;22.80;69.30
32296;DHT22;18781;51.550;5.418;2022-08-19T08:21:44;22.90;69.10
32296;DHT22;18781;51.550;5.418;2022-08-19T08:24:10;22.90;68.90
32296;DHT22;18781;51.550;5.418;2022-08-19T08:26:36;22.90;68.80
32296;DHT22;18781;51.550;5.418;2022-08-19T08:29:02;23.00;68.70
32296;DHT22;18781;51.550;5.418;2022-08-19T08:31:28;23.00;68.80
32296;DHT22;18781;51.550;5.418;2022-08-19T08:33:54;23.00;68.80
32296;DHT22;18781;51.550;5.418;2022-08-19T08:36:20;23.00;69.00
32296;DHT22;18781;51.550;5.418;2022-08-19T08:38:46;23.10;69.00
32296;DHT22;18781;51.550;5.418;2022-08-19T08:44:01;23.10;68.90
32296;DHT22;18781;51.550;5.418;2022-08-19T08:46:48;23.20;68.70
32296;DHT22;18781;51.550;5.418;2022-08-19T08:49:31;23.20;68.70
32296;DHT22;18781;51.550;5.418;2022-08-19T08:52:13;23.30;68.40
32296;DHT22;18781;51.550;5.418;2022-08-19T08:54:47;23.30;68.30
32296;DHT22;18781;51.550;5.418;2022-08-19T09:00:02;23.40;68.10
32296;DHT22;18781;51.550;5.418;2022-08-19T09:02:30;23.40;68.00
32296;DHT22;18781;51.550;5.418;2022-08-19T09:04:56;23.50;68.20
32296;DHT22;18781;51.550;5.418;2022-08-19T09:07:27;23.50;68.20
32296;DHT22;18781;51.550;5.418;2022-08-19T09:10:27;23.60;68.10
32296;DHT22;18781;51.550;5.418;2022-08-19T09:13:18;23.60;67.90
32296;DHT22;18781;51.550;5.418;2022-08-19T09:15:46;23.70;68.00
32296;DHT22;18781;51.550;5.418;2022-08-19T09:18:14;23.70;68.10
32296;DHT22;18781;51.550;5.418;2022-08-19T09:20:39;23.80;68.10
32296;DHT22;18781;51.550;5.418;2022-08-19T09:23:05;23.90;68.00
32296;DHT22;18781;51.550;5.418;2022-08-19T09:25:30;23.90;67.60
32296;DHT22;18781;51.550;5.418;2022-08-19T09:28:00;24.00;67.40
32296;DHT22;18781;51.550;5.418;2022-08-19T09:30:33;24.00;67.20
32296;DHT22;18781;51.550;5.418;2022-08-19T09:33:00;24.10;67.00
32296;DHT22;18781;51.550;5.418;2022-08-19T09:35:28;24.10;67.10
32296;DHT22;18781;51.550;5.418;2022-08-19T09:37:55;24.10;67.00
32296;DHT22;18781;51.550;5.418;2022-08-19T09:40:20;24.20;66.70
32296;DHT22;18781;51.550;5.418;2022-08-19T09:42:46;24.20;66.40
32296;DHT22;18781;51.550;5.418;2022-08-19T09:45:14;24.20;66.40
32296;DHT22;18781;51.550;5.418;2022-08-19T09:47:40;24.20;66.30
32296;DHT22;18781;51.550;5.418;2022-08-19T09:50:07;24.30;66.50
32296;DHT22;18781;51.550;5.418;2022-08-19T09:52:34;24.30;66.50
32296;DHT22;18781;51.550;5.418;2022-08-19T09:55:03;24.40;66.50
32296;DHT22;18781;51.550;5.418;2022-08-19T09:57:29;24.40;65.90
32296;DHT22;18781;51.550;5.418;2022-08-19T09:59:55;24.40;65.70
32296;DHT22;18781;51.550;5.418;2022-08-19T10:02:20;24.50;65.60
32296;DHT22;18781;51.550;5.418;2022-08-19T10:04:46;24.50;65.40
32296;DHT22;18781;51.550;5.418;2022-08-19T10:07:30;24.50;65.30
32296;DHT22;18781;51.550;5.418;2022-08-19T10:09:55;24.50;65.20
32296;DHT22;18781;51.550;5.418;2022-08-19T10:12:21;24.50;65.40
32296;DHT22;18781;51.550;5.418;2022-08-19T10:14:47;24.60;65.50
32296;DHT22;18781;51.550;5.418;2022-08-19T10:17:13;24.60;65.20
32296;DHT22;18781;51.550;5.418;2022-08-19T10:19:40;24.60;65.50
32296;DHT22;18781;51.550;5.418;2022-08-19T10:22:06;24.60;65.20
32296;DHT22;18781;51.550;5.418;2022-08-19T10:24:33;24.70;65.20
32296;DHT22;18781;51.550;5.418;2022-08-19T10:27:00;24.70;64.90
32296;DHT22;18781;51.550;5.418;2022-08-19T10:29:29;24.70;64.90
32296;DHT22;18781;51.550;5.418;2022-08-19T10:31:55;24.80;64.90
32296;DHT22;18781;51.550;5.418;2022-08-19T10:34:24;24.80;64.70
32296;DHT22;18781;51.550;5.418;2022-08-19T10:36:49;24.90;64.80
32296;DHT22;18781;51.550;5.418;2022-08-19T10:39:16;24.90;64.40
32296;DHT22;18781;51.550;5.418;2022-08-19T10:41:42;24.90;64.40
32296;DHT22;18781;51.550;5.418;2022-08-19T10:44:13;25.00;64.20
32296;DHT22;18781;51.550;5.418;2022-08-19T10:46:41;25.00;63.80
32296;DHT22;18781;51.550;5.418;2022-08-19T10:49:08;25.00;63.60
32296;DHT22;18781;51.550;5.418;2022-08-19T10:51:34;25.00;63.60
32296;DHT22;18781;51.550;5.418;2022-08-19T10:54:19;25.10;63.50
32296;DHT22;18781;51.550;5.418;2022-08-19T10:56:45;25.10;63.20
32296;DHT22;18781;51.550;5.418;2022-08-19T11:01:44;25.20;63.40
32296;DHT22;18781;51.550;5.418;2022-08-19T11:04:10;25.30;63.50
32296;DHT22;18781;51.550;5.418;2022-08-19T11:06:37;25.30;63.50
32296;DHT22;18781;51.550;5.418;2022-08-19T11:09:04;25.30;63.50
32296;DHT22;18781;51.550;5.418;2022-08-19T11:11:30;25.40;63.30
32296;DHT22;18781;51.550;5.418;2022-08-19T11:13:57;25.40;63.20
32296;DHT22;18781;51.550;5.418;2022-08-19T11:16:25;25.50;63.50
32296;DHT22;18781;51.550;5.418;2022-08-19T11:18:53;25.50;63.10
32296;DHT22;18781;51.550;5.418;2022-08-19T11:21:22;25.60;63.10
32296;DHT22;18781;51.550;5.418;2022-08-19T11:23:50;25.60;62.70
32296;DHT22;18781;51.550;5.418;2022-08-19T11:26:18;25.70;62.80
32296;DHT22;18781;51.550;5.418;2022-08-19T11:28:44;25.70;62.50
32296;DHT22;18781;51.550;5.418;2022-08-19T11:31:11;25.70;62.70
32296;DHT22;18781;51.550;5.418;2022-08-19T11:33:39;25.80;62.30
32296;DHT22;18781;51.550;5.418;2022-08-19T11:36:05;25.80;62.50
32296;DHT22;18781;51.550;5.418;2022-08-19T11:38:30;25.90;62.30
32296;DHT22;18781;51.550;5.418;2022-08-19T11:40:58;25.90;62.50
32296;DHT22;18781;51.550;5.418;2022-08-19T11:43:24;26.00;62.50
32296;DHT22;18781;51.550;5.418;2022-08-19T11:45:53;26.10;62.30
32296;DHT22;18781;51.550;5.418;2022-08-19T11:48:19;26.20;61.80
32296;DHT22;18781;51.550;5.418;2022-08-19T11:50:48;26.30;61.30
32296;DHT22;18781;51.550;5.418;2022-08-19T11:53:15;26.30;61.30
32296;DHT22;18781;51.550;5.418;2022-08-19T11:55:40;26.40;60.90
32296;DHT22;18781;51.550;5.418;2022-08-19T11:58:07;26.50;60.80
32296;DHT22;18781;51.550;5.418;2022-08-19T12:00:34;26.60;60.60
32296;DHT22;18781;51.550;5.418;2022-08-19T12:03:02;26.60;60.70
32296;DHT22;18781;51.550;5.418;2022-08-19T12:05:27;26.70;60.40
32296;DHT22;18781;51.550;5.418;2022-08-19T12:07:53;26.70;60.60
32296;DHT22;18781;51.550;5.418;2022-08-19T12:10:20;26.70;60.10
32296;DHT22;18781;51.550;5.418;2022-08-19T12:12:46;26.80;60.00
32296;DHT22;18781;51.550;5.418;2022-08-19T12:15:12;26.80;60.00
32296;DHT22;18781;51.550;5.418;2022-08-19T12:17:40;26.90;59.70
32296;DHT22;18781;51.550;5.418;2022-08-19T12:20:08;26.90;59.70
32296;DHT22;18781;51.550;5.418;2022-08-19T12:22:35;27.00;59.60
32296;DHT22;18781;51.550;5.418;2022-08-19T12:25:00;27.10;59.50
32296;DHT22;18781;51.550;5.418;2022-08-19T12:27:26;27.10;59.50
32296;DHT22;18781;51.550;5.418;2022-08-19T12:29:52;27.10;59.10
32296;DHT22;18781;51.550;5.418;2022-08-19T12:32:18;27.20;59.40
32296;DHT22;18781;51.550;5.418;2022-08-19T12:34:43;27.20;59.10
32296;DHT22;18781;51.550;5.418;2022-08-19T12:37:09;27.20;59.20
32296;DHT22;18781;51.550;5.418;2022-08-19T12:39:38;27.30;59.10
32296;DHT22;18781;51.550;5.418;2022-08-19T12:42:05;27.30;59.20
32296;DHT22;18781;51.550;5.418;2022-08-19T12:44:30;27.40;59.00
32296;DHT22;18781;51.550;5.418;2022-08-19T12:46:57;27.40;59.10
32296;DHT22;18781;51.550;5.418;2022-08-19T12:49:23;27.40;58.80
32296;DHT22;18781;51.550;5.418;2022-08-19T12:51:50;27.50;58.90
32296;DHT22;18781;51.550;5.418;2022-08-19T12:54:15;27.50;58.80
32296;DHT22;18781;51.550;5.418;2022-08-19T12:56:41;27.60;58.30
32296;DHT22;18781;51.550;5.418;2022-08-19T12:59:09;27.60;58.10
32296;DHT22;18781;51.550;5.418;2022-08-19T13:01:36;27.60;57.90
32296;DHT22;18781;51.550;5.418;2022-08-19T13:04:02;27.70;57.80
32296;DHT22;18781;51.550;5.418;2022-08-19T13:06:28;27.70;57.70
32296;DHT22;18781;51.550;5.418;2022-08-19T13:08:54;27.70;57.90
32296;DHT22;18781;51.550;5.418;2022-08-19T13:11:21;27.70;57.80
32296;DHT22;18781;51.550;5.418;2022-08-19T13:13:51;27.70;57.70
32296;DHT22;18781;51.550;5.418;2022-08-19T13:16:17;27.70;57.70
32296;DHT22;18781;51.550;5.418;2022-08-19T13:18:45;27.60;57.60
32296;DHT22;18781;51.550;5.418;2022-08-19T13:21:12;27.60;57.50
32296;DHT22;18781;51.550;5.418;2022-08-19T13:23:39;27.60;57.70
32296;DHT22;18781;51.550;5.418;2022-08-19T13:26:07;27.60;57.80
32296;DHT22;18781;51.550;5.418;2022-08-19T13:28:33;27.60;57.80
32296;DHT22;18781;51.550;5.418;2022-08-19T13:31:20;27.60;58.00
32296;DHT22;18781;51.550;5.418;2022-08-19T13:34:05;27.50;57.80
32296;DHT22;18781;51.550;5.418;2022-08-19T13:36:32;27.50;58.10
32296;DHT22;18781;51.550;5.418;2022-08-19T13:38:58;27.50;58.00
32296;DHT22;18781;51.550;5.418;2022-08-19T13:41:24;27.50;58.10
32296;DHT22;18781;51.550;5.418;2022-08-19T13:43:50;27.50;58.00
32296;DHT22;18781;51.550;5.418;2022-08-19T13:46:15;27.40;58.30
32296;DHT22;18781;51.550;5.418;2022-08-19T13:48:42;27.40;58.30
32296;DHT22;18781;51.550;5.418;2022-08-19T13:51:08;27.40;58.40
32296;DHT22;18781;51.550;5.418;2022-08-19T13:53:37;27.40;58.40
32296;DHT22;18781;51.550;5.418;2022-08-19T13:56:08;27.40;58.40
32296;DHT22;18781;51.550;5.418;2022-08-19T13:58:34;27.30;58.40
32296;DHT22;18781;51.550;5.418;2022-08-19T14:01:00;27.30;58.40
32296;DHT22;18781;51.550;5.418;2022-08-19T14:03:26;27.30;59.20
32296;DHT22;18781;51.550;5.418;2022-08-19T14:05:53;27.20;59.10
32296;DHT22;18781;51.550;5.418;2022-08-19T14:08:18;27.20;59.30
32296;DHT22;18781;51.550;5.418;2022-08-19T14:10:44;27.20;60.00
32296;DHT22;18781;51.550;5.418;2022-08-19T14:13:14;27.20;60.30
32296;DHT22;18781;51.550;5.418;2022-08-19T14:15:40;27.20;61.00
32296;DHT22;18781;51.550;5.418;2022-08-19T14:18:05;27.20;61.60
32296;DHT22;18781;51.550;5.418;2022-08-19T14:20:34;27.20;61.70
32296;DHT22;18781;51.550;5.418;2022-08-19T14:23:00;27.20;61.10
32296;DHT22;18781;51.550;5.418;2022-08-19T14:25:28;27.30;61.10
32296;DHT22;18781;51.550;5.418;2022-08-19T14:27:55;27.30;61.00
32296;DHT22;18781;51.550;5.418;2022-08-19T14:30:26;27.30;60.40
32296;DHT22;18781;51.550;5.418;2022-08-19T14:32:54;27.40;60.50
32296;DHT22;18781;51.550;5.418;2022-08-19T14:35:20;27.40;59.80
32296;DHT22;18781;51.550;5.418;2022-08-19T14:37:47;27.40;59.30
32296;DHT22;18781;51.550;5.418;2022-08-19T14:40:16;27.40;59.30
32296;DHT22;18781;51.550;5.418;2022-08-19T14:42:43;27.40;59.40
32296;DHT22;18781;51.550;5.418;2022-08-19T14:45:11;27.40;59.70
32296;DHT22;18781;51.550;5.418;2022-08-19T14:47:37;27.40;59.50
32296;DHT22;18781;51.550;5.418;2022-08-19T14:50:05;27.50;59.30
32296;DHT22;18781;51.550;5.418;2022-08-19T14:52:32;27.50;59.30
32296;DHT22;18781;51.550;5.418;2022-08-19T14:54:57;27.50;59.30
32296;DHT22;18781;51.550;5.418;2022-08-19T14:57:23;27.50;59.30
32296;DHT22;18781;51.550;5.418;2022-08-19T14:59:48;27.60;59.10
32296;DHT22;18781;51.550;5.418;2022-08-19T15:02:15;27.60;58.90
32296;DHT22;18781;51.550;5.418;2022-08-19T15:04:40;27.60;59.10
32296;DHT22;18781;51.550;5.418;2022-08-19T15:07:06;27.60;59.10
32296;DHT22;18781;51.550;5.418;2022-08-19T15:09:32;27.60;59.30
32296;DHT22;18781;51.550;5.418;2022-08-19T15:11:58;27.60;59.20
32296;DHT22;18781;51.550;5.418;2022-08-19T15:14:25;27.60;58.90
32296;DHT22;18781;51.550;5.418;2022-08-19T15:16:51;27.70;58.80
32296;DHT22;18781;51.550;5.418;2022-08-19T15:19:17;27.70;58.60
32296;DHT22;18781;51.550;5.418;2022-08-19T15:21:43;27.70;58.30
32296;DHT22;18781;51.550;5.418;2022-08-19T15:24:08;27.70;58.20
32296;DHT22;18781;51.550;5.418;2022-08-19T15:26:34;27.70;58.30
32296;DHT22;18781;51.550;5.418;2022-08-19T15:29:00;27.70;58.30
32296;DHT22;18781;51.550;5.418;2022-08-19T15:31:26;27.70;58.40
32296;DHT22;18781;51.550;5.418;2022-08-19T15:33:53;27.70;58.40
32296;DHT22;18781;51.550;5.418;2022-08-19T15:36:21;27.70;58.30
32296;DHT22;18781;51.550;5.418;2022-08-19T15:38:48;27.70;58.30
32296;DHT22;18781;51.550;5.418;2022-08-19T15:41:29;27.70;57.90
32296;DHT22;18781;51.550;5.418;2022-08-19T15:43:58;27.70;57.80
32296;DHT22;18781;51.550;5.418;2022-08-19T15:46:26;27.70;58.00